Harnell Park, Minnesota
Current Conditions -  °F | °C
As of 4:55 PM on Thursday 27 Nov 2014 (Local Time) from KDLH Reporting Station
Clear Clear  
Wind Chill:   Ceiling: Unl
Heat Index:   Visibility: 10mi
Dew Point: -8°   Wind: 3mph
Humidity: 55%   Direction: 250°WSW
Pressure: 30.3"   Gusts: NA
Location:  46.8859°N, 92.4258°W
Report Text: KDLH 272255Z 25003KT 10SM CLR M15/M22 A3030 RMK AO2 SLP306 T11501222
Loading
Personal Weather Stations






























Interactive Weather Map New forecast layout! Learn more

10-Day Weather Forecast

Advertisements
Track Severe Weather on mobile